createdAt,value
2018-10-03T00:00:37.939Z,99.99
2018-10-03T00:01:46.845Z,99.99
2018-10-03T00:02:55.477Z,99.99
2018-10-03T00:04:04.124Z,99.99
2018-10-03T00:05:12.760Z,99.99
2018-10-03T00:06:21.409Z,99.99
2018-10-03T00:07:30.039Z,99.99
2018-10-03T00:08:38.949Z,99.99
2018-10-03T00:09:47.585Z,99.99
2018-10-03T00:10:56.233Z,99.99
2018-10-03T00:12:04.864Z,99.99
2018-10-03T00:13:13.514Z,99.99
2018-10-03T00:14:22.152Z,99.99
2018-10-03T00:15:30.801Z,99.99
2018-10-03T00:16:39.438Z,99.99
2018-10-03T00:17:48.073Z,99.99
2018-10-03T00:18:56.712Z,99.99
2018-10-03T00:20:05.351Z,99.99
2018-10-03T00:21:13.999Z,99.99
2018-10-03T00:22:22.636Z,99.99
2018-10-03T00:23:31.330Z,99.99
2018-10-03T00:24:40.178Z,99.99
2018-10-03T00:25:48.826Z,99.99
2018-10-03T00:26:57.459Z,99.99
2018-10-03T00:28:06.106Z,99.99
2018-10-03T00:29:15.008Z,99.99
2018-10-03T00:30:23.656Z,99.99
2018-10-03T00:31:32.293Z,99.99
2018-10-03T00:32:40.935Z,99.99
2018-10-03T00:33:49.563Z,99.99
2018-10-03T00:34:58.207Z,99.99
2018-10-03T00:36:06.852Z,99.99
2018-10-03T00:37:15.757Z,99.99
2018-10-03T00:38:24.394Z,99.99
2018-10-03T00:39:33.309Z,99.99
2018-10-03T00:40:41.946Z,99.99
2018-10-03T00:41:50.592Z,99.99
2018-10-03T00:42:59.484Z,99.99
2018-10-03T00:44:08.128Z,99.99
2018-10-03T00:45:16.761Z,99.99
2018-10-03T00:46:25.408Z,99.99
2018-10-03T00:47:34.039Z,99.99
2018-10-03T00:48:42.687Z,99.99
2018-10-03T00:49:51.323Z,99.99
2018-10-03T00:50:59.969Z,99.99
2018-10-03T00:52:08.862Z,99.99
2018-10-03T00:53:17.504Z,99.99
2018-10-03T00:54:26.146Z,99.99
2018-10-03T00:55:35.059Z,99.99
2018-10-03T00:56:43.705Z,99.99
2018-10-03T00:57:52.332Z,99.99
2018-10-03T00:59:00.983Z,99.99
2018-10-03T01:00:09.884Z,99.99
2018-10-03T01:01:18.538Z,99.99
2018-10-03T01:02:27.166Z,99.99
2018-10-03T01:03:36.078Z,99.99
2018-10-03T01:04:44.717Z,99.99
2018-10-03T01:05:53.366Z,99.99
2018-10-03T01:07:02.255Z,99.99
2018-10-03T01:08:11.165Z,99.99
2018-10-03T01:09:19.803Z,99.99
2018-10-03T01:10:28.448Z,99.99
2018-10-03T01:11:37.089Z,99.99
2018-10-03T01:12:45.982Z,99.99
2018-10-03T01:13:54.624Z,99.99
2018-10-03T01:15:03.524Z,99.99
2018-10-03T01:16:12.179Z,99.99
2018-10-03T01:17:20.818Z,99.99
2018-10-03T01:18:29.460Z,99.99
2018-10-03T01:19:38.093Z,99.99
2018-10-03T01:20:47.009Z,99.99
2018-10-03T01:21:55.645Z,99.99
2018-10-03T01:23:04.293Z,99.99
2018-10-03T01:24:12.921Z,99.99
2018-10-03T01:25:21.837Z,99.99
2018-10-03T01:26:30.471Z,99.99
2018-10-03T01:27:39.126Z,99.99
2018-10-03T01:28:48.021Z,99.99
2018-10-03T01:29:56.667Z,99.99
2018-10-03T01:31:05.845Z,99.99
2018-10-03T01:32:14.487Z,99.99
2018-10-03T01:33:23.132Z,99.99
2018-10-03T01:34:31.760Z,99.99
2018-10-03T01:35:40.408Z,99.99
2018-10-03T01:36:49.307Z,99.99
2018-10-03T01:37:57.952Z,99.99
2018-10-03T01:39:06.590Z,99.99
2018-10-03T01:40:15.229Z,99.99
2018-10-03T01:41:23.867Z,99.99
2018-10-03T01:42:32.512Z,99.99
2018-10-03T01:43:41.146Z,99.99
2018-10-03T01:44:49.789Z,99.99
2018-10-03T01:45:58.427Z,99.99
2018-10-03T01:47:07.070Z,99.99
2018-10-03T01:48:15.722Z,99.99
2018-10-03T01:49:24.886Z,99.99
2018-10-03T01:50:33.523Z,99.99
2018-10-03T01:51:42.695Z,99.99
2018-10-03T01:52:51.604Z,99.99
2018-10-03T01:54:00.240Z,99.99
2018-10-03T01:55:08.881Z,99.99
2018-10-03T01:56:17.520Z,99.99
2018-10-03T01:57:26.162Z,99.99
2018-10-03T01:58:34.806Z,99.99
2018-10-03T01:59:43.704Z,99.99
2018-10-03T02:00:52.605Z,99.99
2018-10-03T02:02:01.249Z,99.99
2018-10-03T02:03:10.146Z,99.99
2018-10-03T02:04:18.788Z,99.99
2018-10-03T02:05:27.426Z,99.99
2018-10-03T02:06:36.068Z,99.99
2018-10-03T02:07:44.974Z,99.99
2018-10-03T02:08:53.617Z,99.99
2018-10-03T02:10:02.262Z,99.99
2018-10-03T02:11:10.896Z,99.99
2018-10-03T02:12:19.800Z,99.99
2018-10-03T02:13:28.440Z,99.99
2018-10-03T02:14:37.137Z,99.99
2018-10-03T02:15:45.721Z,99.99
2018-10-03T02:16:54.365Z,99.99
2018-10-03T02:18:03.007Z,99.99
2018-10-03T02:19:11.655Z,99.99
2018-10-03T02:20:20.292Z,99.99
2018-10-03T02:21:28.930Z,99.99
2018-10-03T02:22:37.568Z,99.99
2018-10-03T02:23:46.210Z,99.99
2018-10-03T02:24:54.850Z,99.99
2018-10-03T02:26:03.493Z,99.99
2018-10-03T02:27:12.132Z,99.99
2018-10-03T02:28:20.770Z,99.99
2018-10-03T02:29:29.418Z,99.99
2018-10-03T02:30:38.071Z,99.99
2018-10-03T02:31:46.699Z,99.99
2018-10-03T02:32:55.615Z,99.99
2018-10-03T02:34:04.251Z,99.99
2018-10-03T02:35:13.159Z,99.99
2018-10-03T02:36:21.813Z,99.99
2018-10-03T02:37:30.729Z,99.99
2018-10-03T02:38:39.890Z,99.99
2018-10-03T02:39:48.791Z,99.99
2018-10-03T02:40:57.691Z,99.99
2018-10-03T02:42:06.340Z,99.99
2018-10-03T02:43:14.980Z,99.99
2018-10-03T02:44:23.903Z,99.99
2018-10-03T02:45:32.822Z,99.99
2018-10-03T02:46:41.463Z,99.99
2018-10-03T02:47:50.377Z,99.99
2018-10-03T02:48:59.541Z,99.99
2018-10-03T02:50:08.451Z,99.99
2018-10-03T02:51:17.353Z,99.99
2018-10-03T02:52:26.000Z,99.99
2018-10-03T02:53:34.896Z,99.99
2018-10-03T02:54:43.805Z,99.99
2018-10-03T02:55:52.443Z,99.99
2018-10-03T02:57:01.092Z,99.99
2018-10-03T02:58:09.734Z,99.99
2018-10-03T02:59:18.373Z,99.99
2018-10-03T03:00:27.275Z,99.99
2018-10-03T03:01:35.932Z,99.99
2018-10-03T03:02:44.563Z,99.99
2018-10-03T03:03:53.465Z,99.99
2018-10-03T03:05:02.642Z,99.99
2018-10-03T03:06:11.273Z,99.99
2018-10-03T03:07:19.920Z,99.99
2018-10-03T03:08:28.620Z,99.99
2018-10-03T03:09:37.204Z,99.99
2018-10-03T03:10:46.106Z,99.99
2018-10-03T03:11:55.291Z,99.99
2018-10-03T03:13:04.197Z,99.99
2018-10-03T03:14:12.850Z,99.99
2018-10-03T03:15:21.488Z,99.99
2018-10-03T03:16:30.133Z,99.99
2018-10-03T03:17:38.772Z,99.99
2018-10-03T03:18:47.426Z,99.99
2018-10-03T03:19:56.070Z,99.99
2018-10-03T03:21:04.706Z,99.99
2018-10-03T03:22:13.346Z,99.99
2018-10-03T03:23:21.983Z,99.99
2018-10-03T03:24:30.633Z,99.99
2018-10-03T03:25:39.533Z,99.99
2018-10-03T03:26:48.179Z,99.99
2018-10-03T03:27:56.819Z,99.99
2018-10-03T03:29:05.734Z,99.99
2018-10-03T03:30:14.919Z,99.99
2018-10-03T03:31:23.832Z,99.99
2018-10-03T03:32:33.007Z,99.99
2018-10-03T03:33:42.180Z,99.99
2018-10-03T03:34:50.834Z,99.99
2018-10-03T03:35:59.742Z,99.99
2018-10-03T03:37:08.377Z,99.99
2018-10-03T03:38:17.018Z,99.99
2018-10-03T03:39:25.926Z,99.99
2018-10-03T03:40:34.575Z,99.99
2018-10-03T03:41:43.219Z,99.99
2018-10-03T03:42:51.855Z,99.99
2018-10-03T03:44:00.760Z,99.99
2018-10-03T03:45:09.403Z,99.99
2018-10-03T03:46:18.313Z,99.99
2018-10-03T03:47:26.950Z,99.99
2018-10-03T03:48:35.860Z,99.99
2018-10-03T03:49:44.500Z,99.99
2018-10-03T03:50:53.418Z,99.99
2018-10-03T03:52:02.059Z,99.99
2018-10-03T03:53:10.700Z,99.99
2018-10-03T03:54:19.621Z,99.99
2018-10-03T03:55:28.542Z,99.99
2018-10-03T03:56:37.180Z,99.99
2018-10-03T03:57:46.085Z,99.99
2018-10-03T03:58:54.720Z,99.99
2018-10-03T04:00:03.373Z,99.99
2018-10-03T04:01:12.012Z,99.99
2018-10-03T04:02:21.190Z,99.99
2018-10-03T04:03:29.831Z,99.99
2018-10-03T04:04:38.470Z,99.99
2018-10-03T04:05:47.117Z,99.99
2018-10-03T04:06:56.088Z,99.99
2018-10-03T04:08:05.005Z,99.99
2018-10-03T04:09:13.905Z,99.99
2018-10-03T04:10:22.819Z,99.99
2018-10-03T04:11:31.718Z,99.99
2018-10-03T04:12:40.362Z,99.99
2018-10-03T04:13:48.994Z,99.99
2018-10-03T04:14:57.898Z,99.99
2018-10-03T04:16:06.539Z,99.99
2018-10-03T04:17:15.193Z,99.99
2018-10-03T04:18:23.839Z,99.99
2018-10-03T04:19:32.745Z,99.99
2018-10-03T04:20:41.393Z,99.99
2018-10-03T04:21:50.299Z,99.99
2018-10-03T04:22:58.953Z,99.99
2018-10-03T04:24:07.582Z,99.99
2018-10-03T04:25:16.488Z,99.99
2018-10-03T04:26:25.125Z,99.99
2018-10-03T04:27:33.775Z,99.99
2018-10-03T04:28:42.941Z,99.99
2018-10-03T04:29:51.588Z,99.99
2018-10-03T04:31:00.228Z,99.99
2018-10-03T04:32:08.862Z,99.99
2018-10-03T04:33:17.506Z,99.99
2018-10-03T04:34:26.151Z,99.99
2018-10-03T04:35:34.837Z,99.99
2018-10-03T04:36:43.442Z,99.99
2018-10-03T04:37:52.340Z,99.99
2018-10-03T04:39:00.978Z,99.99
2018-10-03T04:40:09.621Z,99.99
2018-10-03T04:41:18.269Z,99.99
2018-10-03T04:42:27.326Z,99.99
2018-10-03T04:43:35.959Z,99.99
2018-10-03T04:44:44.599Z,99.99
2018-10-03T04:45:53.244Z,99.99
2018-10-03T04:47:01.885Z,99.99
2018-10-03T04:48:10.788Z,99.99
2018-10-03T04:49:19.690Z,99.99
2018-10-03T04:50:28.602Z,99.99
2018-10-03T04:51:37.240Z,99.99
2018-10-03T04:52:45.883Z,99.99
2018-10-03T04:53:54.519Z,99.99
2018-10-03T04:55:03.159Z,99.99
2018-10-03T04:56:12.061Z,99.99
2018-10-03T04:57:20.704Z,99.99
2018-10-03T04:58:29.344Z,99.99
2018-10-03T04:59:38.245Z,99.99
2018-10-03T05:00:46.889Z,99.99
2018-10-03T05:01:55.530Z,99.99
2018-10-03T05:03:04.173Z,99.99
2018-10-03T05:04:13.068Z,99.99
2018-10-03T05:05:21.725Z,99.99
2018-10-03T05:06:30.631Z,99.99
2018-10-03T05:07:39.273Z,99.99
2018-10-03T05:08:47.912Z,99.99
2018-10-03T05:09:56.552Z,99.99
2018-10-03T05:11:05.198Z,99.99
2018-10-03T05:12:13.833Z,99.99
2018-10-03T05:13:22.473Z,99.99
2018-10-03T05:14:31.373Z,99.99
2018-10-03T05:15:40.286Z,99.99
2018-10-03T05:16:48.926Z,99.99
2018-10-03T05:17:57.567Z,99.99
2018-10-03T05:19:06.205Z,99.99
2018-10-03T05:20:14.846Z,99.99
2018-10-03T05:21:23.486Z,99.99
2018-10-03T05:22:32.130Z,99.99
2018-10-03T05:23:41.293Z,99.99
2018-10-03T05:24:49.934Z,99.99
2018-10-03T05:25:58.573Z,99.99
2018-10-03T05:27:07.217Z,99.99
2018-10-03T05:28:16.113Z,99.99
2018-10-03T05:29:24.754Z,99.99
2018-10-03T05:30:33.650Z,99.99
2018-10-03T05:31:42.290Z,99.99
2018-10-03T05:32:51.204Z,99.99
2018-10-03T05:33:59.840Z,99.99
2018-10-03T05:35:08.491Z,99.99
2018-10-03T05:36:17.654Z,99.99
2018-10-03T05:37:26.302Z,99.99
2018-10-03T05:38:34.941Z,99.99
2018-10-03T05:39:44.128Z,99.99
2018-10-03T05:40:52.638Z,99.99
2018-10-03T05:42:01.287Z,99.99
2018-10-03T05:43:09.928Z,99.99
2018-10-03T05:44:18.572Z,99.99
2018-10-03T05:45:27.475Z,99.99
2018-10-03T05:46:36.116Z,99.99
2018-10-03T05:47:44.761Z,99.99
2018-10-03T05:48:53.700Z,99.99
2018-10-03T05:50:02.315Z,99.99
2018-10-03T05:51:10.949Z,99.99
2018-10-03T05:52:19.595Z,99.99
2018-10-03T05:53:28.232Z,99.99
2018-10-03T05:54:36.909Z,99.99
2018-10-03T05:55:45.857Z,99.99
2018-10-03T05:56:54.767Z,99.99
2018-10-03T05:58:03.403Z,99.99
2018-10-03T05:59:12.050Z,99.99
2018-10-03T06:00:20.681Z,99.99
2018-10-03T06:01:29.325Z,99.99
2018-10-03T06:02:37.968Z,99.99
2018-10-03T06:03:46.613Z,99.99
2018-10-03T06:04:55.251Z,99.99
2018-10-03T06:06:03.885Z,99.99
2018-10-03T06:07:12.521Z,99.99
2018-10-03T06:08:21.159Z,99.99
2018-10-03T06:09:29.812Z,99.99
2018-10-03T06:10:38.707Z,99.99
2018-10-03T06:11:47.353Z,99.99
2018-10-03T06:12:56.250Z,99.99
2018-10-03T06:14:05.167Z,99.99
2018-10-03T06:15:13.803Z,99.99
2018-10-03T06:16:22.449Z,99.99
2018-10-03T06:17:31.608Z,99.99
2018-10-03T06:18:40.336Z,99.99
2018-10-03T06:19:48.897Z,99.99
2018-10-03T06:20:57.542Z,99.99
2018-10-03T06:22:06.173Z,99.99
2018-10-03T06:23:15.085Z,99.99
2018-10-03T06:24:23.729Z,99.99
2018-10-03T06:25:32.372Z,99.99
2018-10-03T06:26:41.279Z,99.99
2018-10-03T06:27:49.929Z,99.99
2018-10-03T06:28:58.937Z,99.99
2018-10-03T06:30:07.586Z,99.99
2018-10-03T06:31:16.244Z,99.99
2018-10-03T06:32:24.868Z,99.99
2018-10-03T06:33:33.881Z,99.99
2018-10-03T06:34:42.415Z,99.99
2018-10-03T06:35:51.325Z,99.99
2018-10-03T06:36:59.960Z,99.99
2018-10-03T06:38:08.604Z,99.99
2018-10-03T06:39:17.558Z,99.99
2018-10-03T06:40:26.583Z,99.99
2018-10-03T06:41:35.386Z,99.99
2018-10-03T06:42:44.022Z,99.99
2018-10-03T06:43:52.661Z,99.99
2018-10-03T06:45:01.299Z,99.99
2018-10-03T06:46:10.209Z,99.99
2018-10-03T06:47:18.860Z,99.99
2018-10-03T06:48:27.768Z,99.99
2018-10-03T06:49:36.403Z,99.99
2018-10-03T06:50:45.580Z,99.99
2018-10-03T06:51:54.219Z,99.99
2018-10-03T06:53:02.860Z,99.99
2018-10-03T06:54:11.496Z,99.99
2018-10-03T06:55:20.143Z,99.99
2018-10-03T06:56:28.779Z,99.99
2018-10-03T06:57:37.431Z,99.99
2018-10-03T06:58:46.066Z,99.99
2018-10-03T06:59:54.708Z,99.99
2018-10-03T07:01:03.350Z,99.99
2018-10-03T07:02:11.998Z,99.99
2018-10-03T07:03:20.637Z,99.99
2018-10-03T07:04:29.273Z,99.99
2018-10-03T07:05:37.917Z,99.99
2018-10-03T07:06:46.559Z,99.99
2018-10-03T07:07:55.469Z,99.99
2018-10-03T07:09:04.386Z,99.99
2018-10-03T07:10:13.293Z,99.99
2018-10-03T07:11:22.729Z,99.99
2018-10-03T07:12:31.372Z,99.99
2018-10-03T07:13:40.009Z,99.99
2018-10-03T07:14:48.659Z,99.99
2018-10-03T07:15:57.293Z,99.99
2018-10-03T07:17:06.206Z,99.99
2018-10-03T07:18:14.846Z,99.99
2018-10-03T07:19:23.751Z,99.99
2018-10-03T07:20:32.391Z,99.99
2018-10-03T07:21:41.030Z,99.99
2018-10-03T07:22:49.676Z,99.99
2018-10-03T07:23:58.319Z,99.99
2018-10-03T07:25:06.960Z,99.99
2018-10-03T07:26:15.678Z,99.99
2018-10-03T07:27:24.247Z,99.99
2018-10-03T07:28:32.885Z,99.99
2018-10-03T07:29:41.531Z,99.99
2018-10-03T07:30:50.167Z,99.99
2018-10-03T07:31:59.340Z,99.99
2018-10-03T07:33:07.979Z,99.99
2018-10-03T07:34:16.626Z,99.99
2018-10-03T07:35:25.257Z,99.99
2018-10-03T07:36:33.903Z,99.99
2018-10-03T07:37:42.549Z,99.99
2018-10-03T07:38:51.192Z,99.99
2018-10-03T07:39:59.835Z,99.99
2018-10-03T07:41:08.468Z,99.99
2018-10-03T07:42:17.114Z,99.99
2018-10-03T07:43:25.750Z,99.99
2018-10-03T07:44:34.400Z,99.99
2018-10-03T07:45:43.297Z,99.99
2018-10-03T07:46:51.943Z,99.99
2018-10-03T07:48:00.636Z,99.99
2018-10-03T07:49:09.599Z,99.99
2018-10-03T07:50:18.229Z,99.99
2018-10-03T07:51:26.874Z,99.99
2018-10-03T07:52:35.517Z,99.99
2018-10-03T07:53:44.916Z,99.99
2018-10-03T07:54:53.461Z,99.99
2018-10-03T07:56:02.131Z,99.99
2018-10-03T07:57:11.041Z,99.99
2018-10-03T07:58:19.679Z,99.99
2018-10-03T07:59:28.594Z,99.99
2018-10-03T08:00:37.230Z,99.99
2018-10-03T08:01:46.143Z,99.99
2018-10-03T08:02:54.774Z,99.99
2018-10-03T08:04:03.426Z,99.99
2018-10-03T08:05:12.332Z,99.99
2018-10-03T08:06:20.983Z,99.99
2018-10-03T08:07:29.882Z,99.99
2018-10-03T08:08:38.534Z,99.99
2018-10-03T08:09:47.499Z,99.99
2018-10-03T08:10:56.084Z,99.99
2018-10-03T08:12:04.979Z,99.99
2018-10-03T08:13:13.628Z,99.99
2018-10-03T08:14:22.271Z,99.99
2018-10-03T08:15:30.916Z,99.99
2018-10-03T08:16:40.088Z,99.99
2018-10-03T08:17:49.245Z,99.99
2018-10-03T08:18:57.892Z,99.99
2018-10-03T08:20:06.529Z,99.99
2018-10-03T08:21:15.177Z,99.99
2018-10-03T08:22:23.809Z,99.99
2018-10-03T08:23:32.455Z,99.99
2018-10-03T08:24:41.185Z,99.99
2018-10-03T08:25:49.733Z,99.99
2018-10-03T08:26:58.389Z,99.99
2018-10-03T08:28:07.288Z,99.99
2018-10-03T08:29:15.933Z,99.99
2018-10-03T08:30:24.562Z,99.99
2018-10-03T08:31:33.207Z,99.99
2018-10-03T08:32:42.385Z,99.99
2018-10-03T08:33:50.766Z,99.99
2018-10-03T08:34:59.675Z,99.99
2018-10-03T08:36:08.573Z,99.99
2018-10-03T08:37:17.219Z,99.99
2018-10-03T08:38:25.860Z,99.99
2018-10-03T08:39:34.788Z,99.99
2018-10-03T08:40:43.422Z,99.99
2018-10-03T08:41:52.066Z,99.99
2018-10-03T08:43:00.702Z,99.99
2018-10-03T08:44:09.353Z,99.99
2018-10-03T08:45:17.992Z,99.99
2018-10-03T08:46:27.214Z,99.99
2018-10-03T08:47:35.861Z,99.99
2018-10-03T08:48:44.506Z,99.99
2018-10-03T08:49:53.674Z,99.99
2018-10-03T08:51:02.307Z,99.99
2018-10-03T08:52:10.946Z,99.99
2018-10-03T08:53:19.586Z,99.99
2018-10-03T08:54:28.239Z,99.99
2018-10-03T08:55:36.875Z,99.99
2018-10-03T08:56:45.521Z,99.99
2018-10-03T08:57:54.174Z,99.99
2018-10-03T08:59:03.162Z,99.99
2018-10-03T09:00:11.804Z,99.99
2018-10-03T09:01:20.979Z,99.99
2018-10-03T09:02:29.614Z,99.99
2018-10-03T09:03:38.269Z,99.99
2018-10-03T09:04:47.172Z,99.99
2018-10-03T09:05:55.817Z,99.99
2018-10-03T09:07:04.715Z,99.99
2018-10-03T09:08:13.359Z,99.99
2018-10-03T09:09:22.012Z,99.99
2018-10-03T09:10:30.658Z,99.99
2018-10-03T09:11:39.375Z,99.99
2018-10-03T09:12:47.937Z,99.99
2018-10-03T09:13:56.584Z,99.99
2018-10-03T09:15:05.485Z,99.99
2018-10-03T09:16:14.407Z,99.99
2018-10-03T09:17:23.042Z,99.99
2018-10-03T09:18:31.689Z,99.99
2018-10-03T09:19:40.585Z,99.14
2018-10-03T09:20:49.242Z,98.94
2018-10-03T09:21:58.267Z,99.99
2018-10-03T09:23:06.786Z,97.32
2018-10-03T09:24:15.437Z,97.03
2018-10-03T09:25:24.350Z,97.03
2018-10-03T09:26:32.992Z,97.13
2018-10-03T09:27:41.635Z,96.27
2018-10-03T09:28:50.276Z,97.71
2018-10-03T09:29:58.919Z,95.41
2018-10-03T09:31:07.570Z,95.03
2018-10-03T09:32:16.207Z,96.84
2018-10-03T09:33:24.852Z,96.75
2018-10-03T09:34:33.490Z,97.42
2018-10-03T09:35:42.139Z,97.52
2018-10-03T09:36:50.783Z,99.99
2018-10-03T09:37:59.427Z,99.33
2018-10-03T09:39:08.064Z,99.33
2018-10-03T09:40:16.712Z,97.75
2018-10-03T09:41:25.621Z,95.98
2018-10-03T09:42:34.263Z,95.98
2018-10-03T09:43:42.928Z,95.07
2018-10-03T09:44:51.947Z,95.65
2018-10-03T09:46:00.589Z,96.42
2018-10-03T09:47:09.234Z,94.6
2018-10-03T09:48:17.878Z,94.51
2018-10-03T09:49:26.517Z,93.6
2018-10-03T09:50:35.159Z,94.65
2018-10-03T09:51:43.804Z,95.65
2018-10-03T09:52:52.450Z,93.65
2018-10-03T09:54:01.355Z,94.79
2018-10-03T09:55:10.007Z,94.31
2018-10-03T09:56:18.653Z,93.45
2018-10-03T09:57:27.829Z,93.45
2018-10-03T09:58:36.470Z,94.79
2018-10-03T09:59:45.117Z,95.84
2018-10-03T10:00:53.852Z,94.31
2018-10-03T10:02:02.408Z,93.55
2018-10-03T10:03:11.049Z,91.64
2018-10-03T10:04:19.693Z,91.25
2018-10-03T10:05:28.334Z,92.59
2018-10-03T10:06:36.978Z,91.64
2018-10-03T10:07:45.624Z,91.64
2018-10-03T10:08:54.267Z,91.54
2018-10-03T10:10:02.940Z,92.21
2018-10-03T10:11:11.918Z,93.69
2018-10-03T10:12:20.499Z,94.65
2018-10-03T10:13:29.145Z,95.61
2018-10-03T10:14:37.788Z,94.51
2018-10-03T10:15:46.428Z,93.21
2018-10-03T10:16:55.077Z,91.78
2018-10-03T10:18:03.720Z,91.2
2018-10-03T10:19:12.365Z,91.78
2018-10-03T10:20:21.003Z,91.39
2018-10-03T10:21:29.648Z,90.53
2018-10-03T10:22:38.292Z,91.59
2018-10-03T10:23:46.938Z,91.88
2018-10-03T10:24:55.583Z,91.78
2018-10-03T10:26:04.237Z,91.06
2018-10-03T10:27:12.881Z,92.16
2018-10-03T10:28:21.789Z,90.63
2018-10-03T10:29:30.702Z,90.16
2018-10-03T10:30:39.340Z,90.63
2018-10-03T10:31:48.308Z,91.97
2018-10-03T10:32:56.984Z,91.11
2018-10-03T10:34:05.542Z,90.53
2018-10-03T10:35:14.178Z,91.2
2018-10-03T10:36:22.822Z,90.82
2018-10-03T10:37:31.466Z,90.73
2018-10-03T10:38:40.121Z,90.63
2018-10-03T10:39:49.025Z,89.87
2018-10-03T10:40:57.692Z,89.67
2018-10-03T10:42:06.327Z,88.53
2018-10-03T10:43:14.975Z,88.05
2018-10-03T10:44:24.035Z,88.05
2018-10-03T10:45:32.670Z,87.86
2018-10-03T10:46:41.360Z,87.66
2018-10-03T10:47:50.711Z,88.15
2018-10-03T10:48:59.368Z,87.38
2018-10-03T10:50:08.071Z,87.95
2018-10-03T10:51:16.661Z,88.76
2018-10-03T10:52:25.304Z,90.1
2018-10-03T10:53:33.950Z,89.15
2018-10-03T10:54:42.598Z,90.01
2018-10-03T10:55:51.504Z,88
2018-10-03T10:57:00.142Z,88.29
2018-10-03T10:58:08.789Z,85.51
2018-10-03T10:59:17.433Z,87.81
2018-10-03T11:00:26.081Z,88.05
2018-10-03T11:01:34.726Z,90.16
2018-10-03T11:02:43.365Z,90.44
2018-10-03T11:03:52.008Z,90.53
2018-10-03T11:05:00.652Z,86.23
2018-10-03T11:06:09.616Z,89.67
2018-10-03T11:07:18.209Z,88.43
2018-10-03T11:08:27.115Z,88.86
2018-10-03T11:09:35.760Z,87
2018-10-03T11:10:44.408Z,85.71
2018-10-03T11:11:53.054Z,85.13
2018-10-03T11:13:01.706Z,84.55
2018-10-03T11:14:10.344Z,85.03
2018-10-03T11:15:18.993Z,85.03
2018-10-03T11:16:27.637Z,86.18
2018-10-03T11:17:36.282Z,87.14
2018-10-03T11:18:44.925Z,84.69
2018-10-03T11:19:53.563Z,84.02
2018-10-03T11:21:02.211Z,84.65
2018-10-03T11:22:10.857Z,85.71
2018-10-03T11:23:19.506Z,85.71
2018-10-03T11:24:28.380Z,86.66
2018-10-03T11:25:37.391Z,87.33
2018-10-03T11:26:46.033Z,87.52
2018-10-03T11:27:54.683Z,88.86
2018-10-03T11:29:03.317Z,88.15
2018-10-03T11:30:11.969Z,88.76
2018-10-03T11:31:20.875Z,87.19
2018-10-03T11:32:29.779Z,88.15
2018-10-03T11:33:38.413Z,88.05
2018-10-03T11:34:47.057Z,88.48
2018-10-03T11:35:55.710Z,87.52
2018-10-03T11:37:04.356Z,86.37
2018-10-03T11:38:13.064Z,87.04
2018-10-03T11:39:21.643Z,85.99
2018-10-03T11:40:30.289Z,86.47
2018-10-03T11:41:38.930Z,86.94
2018-10-03T11:42:48.124Z,86.08
2018-10-03T11:43:57.077Z,86.76
2018-10-03T11:45:06.067Z,86.57
2018-10-03T11:46:14.707Z,86.57
2018-10-03T11:47:23.364Z,85.51
2018-10-03T11:48:32.262Z,86.76
2018-10-03T11:49:40.909Z,86.66
2018-10-03T11:50:49.550Z,88.38
2018-10-03T11:51:58.206Z,86.18
2018-10-03T11:53:06.847Z,86.18
2018-10-03T11:54:15.748Z,86.57
2018-10-03T11:55:24.389Z,86.37
2018-10-03T11:56:33.031Z,82.83
2018-10-03T11:57:41.687Z,83.6
2018-10-03T11:58:50.325Z,82.83
2018-10-03T11:59:58.976Z,84.84
2018-10-03T12:01:07.870Z,82.64
2018-10-03T12:02:16.531Z,83.12
2018-10-03T12:03:25.275Z,82.45
2018-10-03T12:04:33.815Z,81.3
2018-10-03T12:05:42.451Z,80.44
2018-10-03T12:06:51.105Z,81.3
2018-10-03T12:07:59.749Z,81.59
2018-10-03T12:09:08.678Z,82.64
2018-10-03T12:10:17.300Z,83.31
2018-10-03T12:11:26.217Z,84.75
2018-10-03T12:12:35.137Z,86.18
2018-10-03T12:13:44.095Z,85.13
2018-10-03T12:14:53.115Z,84.36
2018-10-03T12:16:01.744Z,80.82
2018-10-03T12:17:10.392Z,82.35
2018-10-03T12:18:19.037Z,80.44
2018-10-03T12:19:27.683Z,81.59
2018-10-03T12:20:36.854Z,81.11
2018-10-03T12:21:45.758Z,79.81
2018-10-03T12:22:54.403Z,80.48
2018-10-03T12:24:03.039Z,79.05
2018-10-03T12:25:11.748Z,79.52
2018-10-03T12:26:20.800Z,80.19
2018-10-03T12:27:29.712Z,80.87
2018-10-03T12:28:38.346Z,78.76
2018-10-03T12:29:46.995Z,78.22
2018-10-03T12:30:55.645Z,77.36
2018-10-03T12:32:04.293Z,77.26
2018-10-03T12:33:13.001Z,78.32
2018-10-03T12:34:21.578Z,76.5
2018-10-03T12:35:30.227Z,77.26
2018-10-03T12:36:39.131Z,76.5
2018-10-03T12:37:47.791Z,76.6
2018-10-03T12:38:56.427Z,76.21
2018-10-03T12:40:05.078Z,76.89
2018-10-03T12:41:13.978Z,76.21
2018-10-03T12:42:22.897Z,76.02
2018-10-03T12:43:31.532Z,77.84
2018-10-03T12:44:40.444Z,78.89
2018-10-03T12:45:49.088Z,76.98
2018-10-03T12:46:57.741Z,77.46
2018-10-03T12:48:06.381Z,76.69
2018-10-03T12:49:15.021Z,76.6
2018-10-03T12:50:23.666Z,77.75
2018-10-03T12:51:32.677Z,77.36
2018-10-03T12:52:41.330Z,78.09
2018-10-03T12:53:49.972Z,80.19
2018-10-03T12:54:58.628Z,82.01
2018-10-03T12:56:07.808Z,82.97
2018-10-03T12:57:16.462Z,84.5
2018-10-03T12:58:25.361Z,81.44
2018-10-03T12:59:34.012Z,80.63
2018-10-03T13:00:42.645Z,81.68
2018-10-03T13:01:51.568Z,81.21
2018-10-03T13:03:00.210Z,83.6
2018-10-03T13:04:09.118Z,81.97
2018-10-03T13:05:18.013Z,82.45
2018-10-03T13:06:26.660Z,83.27
2018-10-03T13:07:35.579Z,85.09
2018-10-03T13:08:44.496Z,86.04
2018-10-03T13:09:53.402Z,84.89
2018-10-03T13:11:02.035Z,82.98
2018-10-03T13:12:10.946Z,83.89
2018-10-03T13:13:19.587Z,86.76
2018-10-03T13:14:28.244Z,86.37
2018-10-03T13:15:37.672Z,87.04
2018-10-03T13:16:46.322Z,87.81
2018-10-03T13:17:54.962Z,84.46
2018-10-03T13:19:03.614Z,83.46
2018-10-03T13:20:12.513Z,84.27
2018-10-03T13:21:21.161Z,86.28
2018-10-03T13:22:29.810Z,84.13
2018-10-03T13:23:38.718Z,83.65
2018-10-03T13:24:47.360Z,85.66
2018-10-03T13:25:56.002Z,84.42
2018-10-03T13:27:04.646Z,85.57
2018-10-03T13:28:13.288Z,86.14
2018-10-03T13:29:21.937Z,85.38
2018-10-03T13:30:30.654Z,87.86
2018-10-03T13:31:39.226Z,87.48
2018-10-03T13:32:47.865Z,85.94
2018-10-03T13:33:56.517Z,86.85
2018-10-03T13:35:05.433Z,84.36
2018-10-03T13:36:14.342Z,83.98
2018-10-03T13:37:22.979Z,82.11
2018-10-03T13:38:31.891Z,81.25
2018-10-03T13:39:40.537Z,81.54
2018-10-03T13:40:49.247Z,79.33
2018-10-03T13:41:57.821Z,79.47
2018-10-03T13:43:06.472Z,78.89
2018-10-03T13:44:15.118Z,78.95
2018-10-03T13:45:24.034Z,79.95
2018-10-03T13:46:32.700Z,79.24
2018-10-03T13:47:41.319Z,80.9
2018-10-03T13:48:50.240Z,79.57
2018-10-03T13:49:58.885Z,79.14
2018-10-03T13:51:07.536Z,78.95
2018-10-03T13:52:16.176Z,78.09
2018-10-03T13:53:24.824Z,76.27
2018-10-03T13:54:33.467Z,75.51
2018-10-03T13:55:42.120Z,76.65
2018-10-03T13:56:50.761Z,78.28
2018-10-03T13:57:59.937Z,77.7
2018-10-03T13:59:08.581Z,77.33
2018-10-03T14:00:17.497Z,77.42
2018-10-03T14:01:26.140Z,77.99
2018-10-03T14:02:35.042Z,78.86
2018-10-03T14:03:43.693Z,80.87
2018-10-03T14:04:52.331Z,77.99
2018-10-03T14:06:01.244Z,81.15
2018-10-03T14:07:09.888Z,80.38
2018-10-03T14:08:18.530Z,79.81
2018-10-03T14:09:27.172Z,79.14
2018-10-03T14:10:35.820Z,80
2018-10-03T14:11:44.464Z,79.14
2018-10-03T14:12:53.376Z,79.33
2018-10-03T14:14:02.015Z,79.43
2018-10-03T14:15:10.667Z,78.76
2018-10-03T14:16:19.308Z,79.68
2018-10-03T14:17:27.957Z,77.7
2018-10-03T14:18:37.026Z,79.62
2018-10-03T14:19:45.588Z,77.23
2018-10-03T14:20:54.237Z,78.24
2018-10-03T14:22:02.884Z,78.91
2018-10-03T14:23:11.529Z,79
2018-10-03T14:24:20.175Z,80.73
2018-10-03T14:25:29.221Z,79.77
2018-10-03T14:26:37.860Z,82.64
2018-10-03T14:27:46.512Z,83.31
2018-10-03T14:28:55.147Z,81.88
2018-10-03T14:30:03.796Z,81.11
2018-10-03T14:31:12.437Z,85.22
2018-10-03T14:32:21.094Z,81.49
2018-10-03T14:33:29.993Z,81.36
2018-10-03T14:34:38.638Z,83.08
2018-10-03T14:35:47.550Z,82.79
2018-10-03T14:36:56.202Z,83.56
2018-10-03T14:38:04.843Z,84.52
2018-10-03T14:39:13.485Z,83.46
2018-10-03T14:40:22.121Z,84.52
2018-10-03T14:41:30.762Z,84.42
2018-10-03T14:42:39.415Z,85.28
2018-10-03T14:43:48.055Z,87.66
2018-10-03T14:44:56.703Z,87.48
2018-10-03T14:46:05.338Z,84.38